CheckWX is a tool to help pilots better visualize weather data.  It is not intended as a substitute for an official pre-flight weather briefing.

07:14:29 UTC

KDLH TAF
Duluth International Airport
Duluth, Minnesota, USA
KDLH 200524Z 2006/2106 08004KT P6SM BKN050 FM201000 08004KT 3SM BR SCT001 FM201300 09005KT P6SM SCT250 FM201700 10010G19KT P6SM SCT250 FM210200 08006KT P6SM BKN080

Jun-20@
06:00 UTC

Jun-20 @ 06:00 UTC

Jun-20@
10:00 UTC

Jun-20 @ 10:00 UTC

KDLH 200524Z 2006/2106 08004KT P6SM BKN050
Wind
  • 080° at 4 KTS
Cloud Levels
  • Broken at 5,000' AGL

Jun-20@
10:00 UTC

Jun-20 @ 10:00 UTC

Jun-20@
13:00 UTC

Jun-20 @ 13:00 UTC

FM201000 08004KT 3SM BR SCT001

From

From Standard forecast or significant change

Wind
  • 080° at 4 KTS
Conditions
Mist
Cloud Levels
  • Scattered at 100' AGL

Jun-20@
13:00 UTC

Jun-20 @ 13:00 UTC

Jun-20@
17:00 UTC

Jun-20 @ 17:00 UTC

FM201300 09005KT P6SM SCT250

From

From Standard forecast or significant change

Wind
  • 090° at 5 KTS
Cloud Levels
  • Scattered at 25,000' AGL

Jun-20@
17:00 UTC

Jun-20 @ 17:00 UTC

Jun-21@
02:00 UTC

Jun-21 @ 02:00 UTC

FM201700 10010G19KT P6SM SCT250

From

From Standard forecast or significant change

Wind
  • 100° at 10 KTS
  • {Gusting to 19 KTS
Cloud Levels
  • Scattered at 25,000' AGL

Jun-21@
02:00 UTC

Jun-21 @ 02:00 UTC

Jun-21@
06:00 UTC

Jun-21 @ 06:00 UTC

FM210200 08006KT P6SM BKN080

From

From Standard forecast or significant change

Wind
  • 080° at 6 KTS
Cloud Levels
  • Broken at 8,000' AGL